createdAt,value
2019-02-22T00:00:36.898Z,6.83
2019-02-22T00:03:05.297Z,6.43
2019-02-22T00:05:34.965Z,4.77
2019-02-22T00:08:03.453Z,4.17
2019-02-22T00:10:31.845Z,8.47
2019-02-22T00:13:00.313Z,3.23
2019-02-22T00:15:28.668Z,5.27
2019-02-22T00:17:56.987Z,5.70
2019-02-22T00:20:25.553Z,5.27
2019-02-22T00:22:54.089Z,4.90
2019-02-22T00:25:22.417Z,5.47
2019-02-22T00:27:50.764Z,5.17
2019-02-22T00:30:21.485Z,12.40
2019-02-22T00:32:49.022Z,18.57
2019-02-22T00:35:17.476Z,9.23
2019-02-22T00:37:45.990Z,13.20
2019-02-22T00:40:14.419Z,6.23
2019-02-22T00:42:42.787Z,4.37
2019-02-22T00:45:11.146Z,8.43
2019-02-22T00:47:39.550Z,5.53
2019-02-22T00:50:08.021Z,5.73
2019-02-22T00:52:36.545Z,6.80
2019-02-22T00:55:05.816Z,4.97
2019-02-22T00:57:34.336Z,5.07
2019-02-22T01:00:03.008Z,4.00
2019-02-22T01:02:32.902Z,6.30
2019-02-22T01:05:01.348Z,13.40
2019-02-22T01:07:29.656Z,7.80
2019-02-22T01:09:59.120Z,7.07
2019-02-22T01:12:27.409Z,9.57
2019-02-22T01:14:55.616Z,8.23
2019-02-22T01:17:23.902Z,8.13
2019-02-22T01:19:52.257Z,8.13
2019-02-22T01:22:20.584Z,6.33
2019-02-22T01:24:49.054Z,6.70
2019-02-22T01:27:17.405Z,5.03
2019-02-22T01:29:45.563Z,7.77
2019-02-22T01:32:13.899Z,6.17
2019-02-22T01:34:42.219Z,17.47
2019-02-22T01:37:10.498Z,13.23
2019-02-22T01:39:39.034Z,9.43
2019-02-22T01:42:07.341Z,8.53
2019-02-22T01:44:35.773Z,11.70
2019-02-22T01:47:04.046Z,5.27
2019-02-22T01:49:32.417Z,7.97
2019-02-22T01:52:00.787Z,6.33
2019-02-22T01:54:29.185Z,6.03
2019-02-22T01:56:57.452Z,3.23
2019-02-22T01:59:25.933Z,5.47
2019-02-22T02:01:54.416Z,4.40
2019-02-22T02:04:22.785Z,7.17
2019-02-22T02:06:51.018Z,7.43
2019-02-22T02:09:19.337Z,5.90
2019-02-22T02:11:47.605Z,4.27
2019-02-22T02:14:15.997Z,6.60
2019-02-22T02:16:44.307Z,6.87
2019-02-22T02:19:12.793Z,11.23
2019-02-22T02:21:41.165Z,6.83
2019-02-22T02:24:09.626Z,6.90
2019-02-22T02:26:38.107Z,3.33
2019-02-22T02:29:06.500Z,4.70
2019-02-22T02:31:34.873Z,7.30
2019-02-22T02:34:04.197Z,14.73
2019-02-22T02:36:32.548Z,9.70
2019-02-22T02:39:00.933Z,4.53
2019-02-22T02:41:30.858Z,6.13
2019-02-22T02:44:00.246Z,1.80
2019-02-22T02:46:28.632Z,2.67
2019-02-22T02:48:56.821Z,3.97
2019-02-22T02:51:25.356Z,8.37
2019-02-22T02:53:53.734Z,6.40
2019-02-22T02:56:22.101Z,3.23
2019-02-22T02:58:50.534Z,1.30
2019-02-22T03:01:18.913Z,3.27
2019-02-22T03:03:47.228Z,11.60
2019-02-22T03:06:18.879Z,5.30
2019-02-22T03:08:47.182Z,4.37
2019-02-22T03:11:20.768Z,8.70
2019-02-22T03:13:46.529Z,7.13
2019-02-22T03:16:15.017Z,5.73
2019-02-22T03:18:43.338Z,3.97
2019-02-22T03:21:12.009Z,4.20
2019-02-22T03:23:40.431Z,4.77
2019-02-22T03:26:08.739Z,2.53
2019-02-22T03:28:37.234Z,4.20
2019-02-22T03:31:06.796Z,4.43
2019-02-22T03:33:35.258Z,5.33
2019-02-22T03:36:03.663Z,4.63
2019-02-22T03:38:31.982Z,7.13
2019-02-22T03:41:01.439Z,4.13
2019-02-22T03:43:29.779Z,3.10
2019-02-22T03:45:58.226Z,3.17
2019-02-22T03:48:26.718Z,1.63
2019-02-22T03:50:55.058Z,7.83
2019-02-22T03:53:25.038Z,6.23
2019-02-22T03:55:53.458Z,3.77
2019-02-22T03:58:21.994Z,2.93
2019-02-22T04:00:50.436Z,7.80
2019-02-22T04:03:18.831Z,3.17
2019-02-22T04:05:47.063Z,2.80
2019-02-22T04:08:15.417Z,5.80
2019-02-22T04:10:43.784Z,6.57
2019-02-22T04:13:12.137Z,3.93
2019-02-22T04:15:40.497Z,5.57
2019-02-22T04:18:08.805Z,8.13
2019-02-22T04:20:37.297Z,14.33
2019-02-22T04:23:05.707Z,18.50
2019-02-22T04:25:33.985Z,3.77
2019-02-22T04:28:02.356Z,4.43
2019-02-22T04:30:30.833Z,6.83
2019-02-22T04:32:59.125Z,8.27
2019-02-22T04:35:27.476Z,1.27
2019-02-22T04:37:55.801Z,2.30
2019-02-22T04:40:24.137Z,4.60
2019-02-22T04:42:52.537Z,7.97
2019-02-22T04:45:20.864Z,7.90
2019-02-22T04:47:49.194Z,3.97
2019-02-22T04:50:17.459Z,3.10
2019-02-22T04:52:45.877Z,5.03
2019-02-22T04:55:14.184Z,5.97
2019-02-22T04:57:42.774Z,6.67
2019-02-22T05:00:11.120Z,2.33
2019-02-22T05:02:39.453Z,4.00
2019-02-22T05:05:07.937Z,4.07
2019-02-22T05:07:36.413Z,4.50
2019-02-22T05:10:06.195Z,2.27
2019-02-22T05:12:34.632Z,4.03
2019-02-22T05:15:11.789Z,10.03
2019-02-22T05:17:35.657Z,5.80
2019-02-22T05:20:03.107Z,1.03
2019-02-22T05:22:31.409Z,4.67
2019-02-22T05:24:59.845Z,5.10
2019-02-22T05:27:28.313Z,2.53
2019-02-22T05:29:56.777Z,3.83
2019-02-22T05:32:24.972Z,3.67
2019-02-22T05:34:53.172Z,3.63
2019-02-22T05:37:21.537Z,3.10
2019-02-22T05:39:49.991Z,3.90
2019-02-22T05:42:22.825Z,4.93
2019-02-22T05:44:48.465Z,3.47
2019-02-22T05:47:16.850Z,8.00
2019-02-22T05:49:45.206Z,5.33
2019-02-22T05:52:13.593Z,6.27
2019-02-22T05:54:42.957Z,3.73
2019-02-22T05:57:14.106Z,2.40
2019-02-22T05:59:41.169Z,8.10
2019-02-22T06:02:09.555Z,8.10
2019-02-22T06:04:38.057Z,5.77
2019-02-22T06:07:06.515Z,3.30
2019-02-22T06:09:34.833Z,5.33
2019-02-22T06:12:03.281Z,2.73
2019-02-22T06:14:31.682Z,3.03
2019-02-22T06:17:00.254Z,5.37
2019-02-22T06:19:28.618Z,5.63
2019-02-22T06:21:56.937Z,2.13
2019-02-22T06:24:25.588Z,7.30
2019-02-22T06:26:53.973Z,3.70
2019-02-22T06:29:22.361Z,4.80
2019-02-22T06:31:50.665Z,2.10
2019-02-22T06:34:19.119Z,3.67
2019-02-22T06:36:47.507Z,5.60
2019-02-22T06:39:15.826Z,4.70
2019-02-22T06:41:44.155Z,3.83
2019-02-22T06:44:12.654Z,6.23
2019-02-22T06:46:41.099Z,7.63
2019-02-22T06:49:09.586Z,3.03
2019-02-22T06:51:37.974Z,3.07
2019-02-22T06:54:06.453Z,7.93
2019-02-22T06:56:35.079Z,5.20
2019-02-22T06:59:03.533Z,8.80
2019-02-22T07:01:31.800Z,12.37
2019-02-22T07:04:00.165Z,14.07
2019-02-22T07:06:28.548Z,5.83
2019-02-22T07:08:56.882Z,17.07
2019-02-22T07:11:26.871Z,9.30
2019-02-22T07:13:55.223Z,4.67
2019-02-22T07:16:25.098Z,4.37
2019-02-22T07:18:53.682Z,3.63
2019-02-22T07:21:21.964Z,5.20
2019-02-22T07:23:51.261Z,9.27
2019-02-22T07:26:19.681Z,8.30
2019-02-22T07:28:48.078Z,4.70
2019-02-22T07:31:16.437Z,5.30
2019-02-22T07:33:44.798Z,2.93
2019-02-22T07:36:13.120Z,7.93
2019-02-22T07:38:41.473Z,7.40
2019-02-22T07:41:09.753Z,8.63
2019-02-22T07:43:38.057Z,4.47
2019-02-22T07:46:09.394Z,4.13
2019-02-22T07:48:37.798Z,2.57
2019-02-22T07:51:06.233Z,3.90
2019-02-22T07:53:34.497Z,4.30
2019-02-22T07:56:02.995Z,5.97
2019-02-22T07:58:31.237Z,5.73
2019-02-22T08:00:59.676Z,4.10
2019-02-22T08:03:28.112Z,8.13
2019-02-22T08:05:56.542Z,7.57
2019-02-22T08:08:24.781Z,2.87
2019-02-22T08:10:53.336Z,6.20
2019-02-22T08:13:21.707Z,3.33
2019-02-22T08:15:50.101Z,3.93
2019-02-22T08:18:18.533Z,9.10
2019-02-22T08:20:47.013Z,3.00
2019-02-22T08:23:15.568Z,5.60
2019-02-22T08:25:43.956Z,3.97
2019-02-22T08:28:12.540Z,4.53
2019-02-22T08:30:41.033Z,4.97
2019-02-22T08:33:09.660Z,3.40
2019-02-22T08:35:38.025Z,5.97
2019-02-22T08:38:06.384Z,3.57
2019-02-22T08:40:34.851Z,4.03
2019-02-22T08:43:03.497Z,3.30
2019-02-22T08:45:32.145Z,6.03
2019-02-22T08:48:00.427Z,4.03
2019-02-22T08:50:28.838Z,3.23
2019-02-22T08:52:58.258Z,4.30
2019-02-22T08:55:26.637Z,5.30
2019-02-22T08:57:55.057Z,5.97
2019-02-22T09:00:23.634Z,2.67
2019-02-22T09:02:52.311Z,2.77
2019-02-22T09:05:20.714Z,3.23
2019-02-22T09:07:49.073Z,5.20
2019-02-22T09:10:18.597Z,2.40
2019-02-22T09:12:48.053Z,3.57
2019-02-22T09:15:16.471Z,6.07
2019-02-22T09:17:44.777Z,10.90
2019-02-22T09:20:13.349Z,1.57
2019-02-22T09:22:41.711Z,5.37
2019-02-22T09:25:10.081Z,3.03
2019-02-22T09:27:38.480Z,4.00
2019-02-22T09:30:08.525Z,3.73
2019-02-22T09:32:37.074Z,7.27
2019-02-22T09:35:06.917Z,4.57
2019-02-22T09:37:35.284Z,8.20
2019-02-22T09:40:04.595Z,2.30
2019-02-22T09:42:32.937Z,4.07
2019-02-22T09:45:01.318Z,6.80
2019-02-22T09:47:29.539Z,1.50
2019-02-22T09:49:57.905Z,2.30
2019-02-22T09:52:26.292Z,2.53
2019-02-22T09:54:54.699Z,1.90
2019-02-22T09:57:23.122Z,2.80
2019-02-22T09:59:51.515Z,3.60
2019-02-22T10:02:19.950Z,2.40
2019-02-22T10:04:54.957Z,2.00
2019-02-22T10:07:18.265Z,2.83
2019-02-22T10:09:46.605Z,10.70
2019-02-22T10:12:15.697Z,5.47
2019-02-22T10:14:44.121Z,3.03
2019-02-22T10:17:12.400Z,5.70
2019-02-22T10:19:40.849Z,8.50
2019-02-22T10:22:09.373Z,7.23
2019-02-22T10:24:37.753Z,2.57
2019-02-22T10:27:06.025Z,3.50
2019-02-22T10:29:34.327Z,6.30
2019-02-22T10:32:03.824Z,4.83
2019-02-22T10:34:32.184Z,7.07
2019-02-22T10:37:00.717Z,4.93
2019-02-22T10:39:29.127Z,4.67
2019-02-22T10:41:57.544Z,3.57
2019-02-22T10:44:26.013Z,6.10
2019-02-22T10:46:54.213Z,3.23
2019-02-22T10:49:22.584Z,5.60
2019-02-22T10:51:51.044Z,2.80
2019-02-22T10:54:19.442Z,2.33
2019-02-22T10:56:48.232Z,1.70
2019-02-22T10:59:16.817Z,2.00
2019-02-22T11:01:45.115Z,1.67
2019-02-22T11:04:13.673Z,1.97
2019-02-22T11:06:41.988Z,4.17
2019-02-22T11:09:10.633Z,2.30
2019-02-22T11:11:39.002Z,5.83
2019-02-22T11:14:07.493Z,4.57
2019-02-22T11:16:35.994Z,7.87
2019-02-22T11:19:04.292Z,3.70
2019-02-22T11:21:32.511Z,3.97
2019-02-22T11:24:01.025Z,3.20
2019-02-22T11:26:29.434Z,2.50
2019-02-22T11:28:57.868Z,3.50
2019-02-22T11:31:26.412Z,3.43
2019-02-22T11:33:54.858Z,8.47
2019-02-22T11:36:23.257Z,2.37
2019-02-22T11:38:51.691Z,2.23
2019-02-22T11:41:20.097Z,2.90
2019-02-22T11:43:48.779Z,5.80
2019-02-22T11:46:17.138Z,4.03
2019-02-22T11:48:45.497Z,1.17
2019-02-22T11:51:13.845Z,6.13
2019-02-22T11:53:42.168Z,3.03
2019-02-22T11:56:10.656Z,4.70
2019-02-22T11:58:39.017Z,6.43
2019-02-22T12:01:08.037Z,5.50
2019-02-22T12:03:36.452Z,3.13
2019-02-22T12:06:04.791Z,3.80
2019-02-22T12:08:33.368Z,8.60
2019-02-22T12:11:03.064Z,2.63
2019-02-22T12:13:32.274Z,4.10
2019-02-22T12:16:01.030Z,5.17
2019-02-22T12:18:29.445Z,2.97
2019-02-22T12:20:57.845Z,4.27
2019-02-22T12:23:26.265Z,0.77
2019-02-22T12:25:54.661Z,2.87
2019-02-22T12:28:23.057Z,8.80
2019-02-22T12:30:51.497Z,1.03
2019-02-22T12:33:19.931Z,2.37
2019-02-22T12:35:48.308Z,1.23
2019-02-22T12:38:16.781Z,4.20
2019-02-22T12:40:45.125Z,2.30
2019-02-22T12:43:13.337Z,3.90
2019-02-22T12:45:41.826Z,2.53
2019-02-22T12:48:10.057Z,3.50
2019-02-22T12:50:38.493Z,3.60
2019-02-22T12:53:06.761Z,4.80
2019-02-22T12:55:35.047Z,4.13
2019-02-22T12:58:03.586Z,4.00
2019-02-22T13:00:32.113Z,4.40
2019-02-22T13:03:02.228Z,2.50
2019-02-22T13:05:30.599Z,2.67
2019-02-22T13:07:59.097Z,2.60
2019-02-22T13:10:27.459Z,3.73
2019-02-22T13:12:55.742Z,2.43
2019-02-22T13:15:24.117Z,4.27
2019-02-22T13:17:52.502Z,6.37
2019-02-22T13:20:20.913Z,3.03
2019-02-22T13:22:49.374Z,1.43
2019-02-22T13:25:17.683Z,2.40
2019-02-22T13:27:45.965Z,5.67
2019-02-22T13:30:15.046Z,2.07
2019-02-22T13:32:43.414Z,2.73
2019-02-22T13:35:11.780Z,4.07
2019-02-22T13:37:40.127Z,2.03
2019-02-22T13:40:10.001Z,4.97
2019-02-22T13:42:38.391Z,4.73
2019-02-22T13:45:08.241Z,4.30
2019-02-22T13:47:36.777Z,4.37
2019-02-22T13:50:06.545Z,3.97
2019-02-22T13:52:34.965Z,2.90
2019-02-22T13:55:03.414Z,16.63
2019-02-22T13:57:32.114Z,3.30
2019-02-22T14:00:00.319Z,1.63
2019-02-22T14:02:28.869Z,1.23
2019-02-22T14:04:57.391Z,5.63
2019-02-22T14:07:25.777Z,3.27
2019-02-22T14:09:54.241Z,2.53
2019-02-22T14:12:22.593Z,2.33
2019-02-22T14:14:50.846Z,2.07
2019-02-22T14:17:19.253Z,5.47
2019-02-22T14:19:47.583Z,3.60
2019-02-22T14:22:15.997Z,1.83
2019-02-22T14:24:44.490Z,0.47
2019-02-22T14:27:12.873Z,7.13
2019-02-22T14:29:41.322Z,2.73
2019-02-22T14:32:09.833Z,4.43
2019-02-22T14:34:40.713Z,2.23
2019-02-22T14:37:08.412Z,2.77
2019-02-22T14:39:38.832Z,5.13
2019-02-22T14:42:06.834Z,3.80
2019-02-22T14:44:35.167Z,4.53
2019-02-22T14:47:03.349Z,3.43
2019-02-22T14:49:31.874Z,1.63
2019-02-22T14:52:00.556Z,2.67
2019-02-22T14:54:28.857Z,2.57
2019-02-22T14:56:57.112Z,2.37
2019-02-22T14:59:25.593Z,3.53
2019-02-22T15:01:53.886Z,2.43
2019-02-22T15:04:22.286Z,4.13
2019-02-22T15:06:50.707Z,2.00
2019-02-22T15:09:19.143Z,3.00
2019-02-22T15:11:47.494Z,5.33
2019-02-22T15:14:17.940Z,3.07
2019-02-22T15:16:47.605Z,1.83
2019-02-22T15:19:16.738Z,3.20
2019-02-22T15:21:44.946Z,4.27
2019-02-22T15:24:13.266Z,2.10
2019-02-22T15:26:41.565Z,6.30
2019-02-22T15:29:11.156Z,5.17
2019-02-22T15:31:39.535Z,3.23
2019-02-22T15:34:07.901Z,2.67
2019-02-22T15:36:36.293Z,2.40
2019-02-22T15:39:05.634Z,3.80
2019-02-22T15:41:35.634Z,2.57
2019-02-22T15:44:05.720Z,1.30
2019-02-22T15:49:09.743Z,1.80
2019-02-22T15:51:38.110Z,1.23
2019-02-22T15:54:06.751Z,4.00
2019-02-22T15:56:35.208Z,4.50
2019-02-22T15:59:04.813Z,2.93
2019-02-22T16:01:35.004Z,4.13
2019-02-22T16:04:04.941Z,4.60
2019-02-22T16:06:33.557Z,1.07
2019-02-22T16:09:02.125Z,3.80
2019-02-22T16:11:32.038Z,3.03
2019-02-22T16:14:00.345Z,4.27
2019-02-22T16:16:28.722Z,3.83
2019-02-22T16:18:56.992Z,4.50
2019-02-22T16:21:25.445Z,5.17
2019-02-22T16:23:53.817Z,5.40
2019-02-22T16:26:23.804Z,4.87
2019-02-22T16:28:52.270Z,3.97
2019-02-22T16:31:20.467Z,3.63
2019-02-22T16:33:50.378Z,4.13
2019-02-22T16:36:18.939Z,7.20
2019-02-22T16:38:47.343Z,1.37
2019-02-22T16:41:15.730Z,3.83
2019-02-22T16:43:43.951Z,8.13
2019-02-22T16:46:13.660Z,8.53
2019-02-22T16:48:41.938Z,3.90
2019-02-22T16:51:10.306Z,8.93
2019-02-22T16:53:38.794Z,5.77
2019-02-22T16:56:07.194Z,5.83
2019-02-22T16:58:35.773Z,8.80
2019-02-22T17:01:04.158Z,11.63
2019-02-22T17:03:32.546Z,4.33
2019-02-22T17:06:01.115Z,9.00
2019-02-22T17:08:29.708Z,3.37
2019-02-22T17:10:58.018Z,6.80
2019-02-22T17:13:26.481Z,2.87
2019-02-22T17:15:54.739Z,5.80
2019-02-22T17:18:23.002Z,6.43
2019-02-22T17:20:51.493Z,8.73
2019-02-22T17:23:19.740Z,5.30
2019-02-22T17:25:48.100Z,5.47
2019-02-22T17:28:16.457Z,9.33
2019-02-22T17:30:44.828Z,3.97
2019-02-22T17:33:13.135Z,8.17
2019-02-22T17:35:41.463Z,6.70
2019-02-22T17:38:09.893Z,7.10
2019-02-22T17:40:38.303Z,7.53
2019-02-22T17:43:06.838Z,7.70
2019-02-22T17:45:35.666Z,8.03
2019-02-22T17:48:03.962Z,5.33
2019-02-22T17:50:32.352Z,10.13
2019-02-22T17:53:00.658Z,11.27
2019-02-22T17:55:29.058Z,6.77
2019-02-22T17:57:57.358Z,8.43
2019-02-22T18:00:26.526Z,10.23
2019-02-22T18:02:55.097Z,15.63
2019-02-22T18:05:23.612Z,7.47
2019-02-22T18:07:51.860Z,4.57
2019-02-22T18:10:20.198Z,12.87
2019-02-22T18:12:49.600Z,4.70
2019-02-22T18:15:18.005Z,10.90
2019-02-22T18:17:47.394Z,7.37
2019-02-22T18:20:15.720Z,7.50
2019-02-22T18:22:44.113Z,11.30
2019-02-22T18:25:12.600Z,7.67
2019-02-22T18:27:40.901Z,8.40
2019-02-22T18:30:10.991Z,6.20
2019-02-22T18:32:39.365Z,10.87
2019-02-22T18:35:07.780Z,7.07
2019-02-22T18:37:36.071Z,5.27
2019-02-22T18:40:07.400Z,9.43
2019-02-22T18:42:35.805Z,13.10
2019-02-22T18:45:04.962Z,10.73
2019-02-22T18:47:33.455Z,4.80
2019-02-22T18:50:02.985Z,9.00
2019-02-22T18:52:31.554Z,6.77
2019-02-22T18:54:59.796Z,15.50
2019-02-22T18:57:28.102Z,7.70
2019-02-22T18:59:56.383Z,11.90
2019-02-22T19:02:24.758Z,10.73
2019-02-22T19:04:53.144Z,9.57
2019-02-22T19:07:21.427Z,9.70
2019-02-22T19:09:49.732Z,11.47
2019-02-22T19:12:18.258Z,12.37
2019-02-22T19:14:47.175Z,9.97
2019-02-22T19:17:15.531Z,12.63
2019-02-22T19:19:43.827Z,6.70
2019-02-22T19:22:12.321Z,7.83
2019-02-22T19:24:40.732Z,7.57
2019-02-22T19:27:09.425Z,10.33
2019-02-22T19:29:38.073Z,7.20
2019-02-22T19:32:06.488Z,11.57
2019-02-22T19:34:34.960Z,14.37
2019-02-22T19:37:04.092Z,11.97
2019-02-22T19:39:32.346Z,13.00
2019-02-22T19:42:00.722Z,7.27
2019-02-22T19:44:29.173Z,7.80
2019-02-22T19:46:57.538Z,5.87
2019-02-22T19:49:25.870Z,13.10
2019-02-22T19:51:54.257Z,7.90
2019-02-22T19:54:22.618Z,12.93
2019-02-22T19:56:52.358Z,13.43
2019-02-22T19:59:22.303Z,13.80
2019-02-22T20:01:50.746Z,13.20
2019-02-22T20:04:19.273Z,12.20
2019-02-22T20:06:47.677Z,12.60
2019-02-22T20:09:15.937Z,11.07
2019-02-22T20:11:48.554Z,11.70
2019-02-22T20:14:17.288Z,12.83
2019-02-22T20:16:45.772Z,10.50
2019-02-22T20:19:14.093Z,7.43
2019-02-22T20:21:42.528Z,12.60
2019-02-22T20:24:11.233Z,10.97
2019-02-22T20:26:39.675Z,10.47
2019-02-22T20:29:08.057Z,10.67
2019-02-22T20:31:36.463Z,10.33
2019-02-22T20:34:04.897Z,16.97
2019-02-22T20:36:33.335Z,14.17
2019-02-22T20:39:01.616Z,11.57
2019-02-22T20:41:31.505Z,14.97
2019-02-22T20:44:00.060Z,19.93
2019-02-22T20:46:28.437Z,17.87
2019-02-22T20:49:00.888Z,10.73
2019-02-22T20:51:27.187Z,14.50
2019-02-22T20:53:55.495Z,9.53
2019-02-22T20:56:23.945Z,18.97
2019-02-22T20:58:52.300Z,10.83
2019-02-22T21:01:20.634Z,18.93
2019-02-22T21:03:49.025Z,19.57
2019-02-22T21:06:17.477Z,14.00
2019-02-22T21:08:47.457Z,12.63
2019-02-22T21:11:15.718Z,9.47
2019-02-22T21:13:44.130Z,13.27
2019-02-22T21:16:12.378Z,16.43
2019-02-22T21:18:40.717Z,15.10
2019-02-22T21:21:09.182Z,17.33
2019-02-22T21:23:37.521Z,13.03
2019-02-22T21:26:06.032Z,9.03
2019-02-22T21:28:34.367Z,11.03
2019-02-22T21:31:02.789Z,27.23
2019-02-22T21:33:31.164Z,14.50
2019-02-22T21:35:59.505Z,17.47
2019-02-22T21:38:27.934Z,16.03
2019-02-22T21:40:56.204Z,17.80
2019-02-22T21:43:24.679Z,14.80
2019-02-22T21:45:53.040Z,15.20
2019-02-22T21:48:27.678Z,12.93
2019-02-22T21:50:51.568Z,13.27
2019-02-22T21:53:20.274Z,16.17
2019-02-22T21:55:48.538Z,14.73
2019-02-22T21:58:16.828Z,15.13
2019-02-22T22:00:45.286Z,17.33
2019-02-22T22:03:13.810Z,32.67
2019-02-22T22:05:41.986Z,17.00
2019-02-22T22:08:10.295Z,16.63
2019-02-22T22:10:38.598Z,15.37
2019-02-22T22:13:07.082Z,15.13
2019-02-22T22:15:35.373Z,13.77
2019-02-22T22:18:03.926Z,14.40
2019-02-22T22:20:32.254Z,9.33
2019-02-22T22:23:00.813Z,15.43
2019-02-22T22:25:29.287Z,20.60
2019-02-22T22:27:58.817Z,13.30
2019-02-22T22:30:27.294Z,25.53
2019-02-22T22:32:55.876Z,18.37
2019-02-22T22:35:24.248Z,14.93
2019-02-22T22:37:52.659Z,13.87
2019-02-22T22:40:21.234Z,28.60
2019-02-22T22:42:49.814Z,15.53
2019-02-22T22:45:18.121Z,17.90
2019-02-22T22:47:46.453Z,16.07
2019-02-22T22:50:15.665Z,16.00
2019-02-22T22:52:44.033Z,12.87
2019-02-22T22:55:12.228Z,22.13
2019-02-22T22:57:40.625Z,16.70
2019-02-22T23:00:10.505Z,16.90
2019-02-22T23:02:40.561Z,10.80
2019-02-22T23:05:09.015Z,13.20
2019-02-22T23:07:37.260Z,9.67
2019-02-22T23:10:06.619Z,17.03
2019-02-22T23:12:36.714Z,15.57
2019-02-22T23:15:05.379Z,11.23
2019-02-22T23:17:33.757Z,8.47
2019-02-22T23:20:02.265Z,14.53
2019-02-22T23:22:32.248Z,13.43
2019-02-22T23:25:00.632Z,13.70
2019-02-22T23:27:29.278Z,15.90
2019-02-22T23:29:57.636Z,14.73
2019-02-22T23:32:25.993Z,15.07
2019-02-22T23:34:54.216Z,15.50
2019-02-22T23:37:22.592Z,10.30
2019-02-22T23:39:51.034Z,18.67
2019-02-22T23:42:19.398Z,18.50
2019-02-22T23:44:47.773Z,15.63
2019-02-22T23:47:16.077Z,13.97
2019-02-22T23:49:45.373Z,9.63
2019-02-22T23:52:14.978Z,12.10
2019-02-22T23:54:43.282Z,14.80
2019-02-22T23:57:11.657Z,11.43
2019-02-22T23:59:39.965Z,17.13
